createdAt,value
2023-04-01T00:01:13.113Z,99436.80
2023-04-01T00:03:51.576Z,99437.80
2023-04-01T00:06:28.790Z,99434.00
2023-04-01T00:09:06.584Z,99438.60
2023-04-01T00:11:43.404Z,99438.60
2023-04-01T00:14:20.672Z,99445.00
2023-04-01T00:16:59.234Z,99442.20
2023-04-01T00:19:35.932Z,99445.80
2023-04-01T00:22:12.835Z,99452.40
2023-04-01T00:24:49.779Z,99457.80
2023-04-01T00:27:26.766Z,99450.40
2023-04-01T00:30:03.328Z,99450.80
2023-04-01T00:32:39.234Z,99455.60
2023-04-01T00:35:17.398Z,99453.40
2023-04-01T00:37:54.368Z,99449.00
2023-04-01T00:40:38.710Z,99458.20
2023-04-01T00:43:21.722Z,99458.40
2023-04-01T00:46:00.383Z,99459.00
2023-04-01T00:48:39.644Z,99459.20
2023-04-01T00:51:21.744Z,99452.00
2023-04-01T00:54:03.060Z,99448.60
2023-04-01T00:56:46.612Z,99458.00
2023-04-01T00:59:28.720Z,99459.80
2023-04-01T01:02:06.715Z,99464.00
2023-04-01T01:04:43.231Z,99469.40
2023-04-01T01:07:37.576Z,99471.00
2023-04-01T01:10:25.843Z,99471.00
2023-04-01T01:13:14.864Z,99466.80
2023-04-01T01:16:00.632Z,99461.80
2023-04-01T01:18:49.051Z,99461.00
2023-04-01T01:22:00.362Z,99459.00
2023-04-01T01:25:02.900Z,99462.00
2023-04-01T01:27:43.477Z,99468.00
2023-04-01T01:30:46.692Z,99466.40
2023-04-01T01:33:52.100Z,99467.20
2023-04-01T01:36:35.768Z,99466.80
2023-04-01T01:39:17.454Z,99464.00
2023-04-01T01:41:55.296Z,99462.80
2023-04-01T01:44:35.368Z,99456.40
2023-04-01T01:47:12.972Z,99450.80
2023-04-01T01:49:50.452Z,99452.60
2023-04-01T01:52:31.354Z,99455.60
2023-04-01T01:55:20.385Z,99455.00
2023-04-01T01:57:59.532Z,99453.00
2023-04-01T02:00:37.589Z,99448.40
2023-04-01T02:03:16.364Z,99442.20
2023-04-01T02:05:53.959Z,99433.20
2023-04-01T02:08:39.073Z,99432.20
2023-04-01T02:11:20.426Z,99431.20
2023-04-01T02:14:04.813Z,99438.40
2023-04-01T02:16:49.354Z,99442.00
2023-04-01T02:19:31.645Z,99445.60
2023-04-01T02:22:12.477Z,99446.60
2023-04-01T02:24:50.116Z,99451.80
2023-04-01T02:27:28.359Z,99455.60
2023-04-01T02:30:05.984Z,99448.60
2023-04-01T02:32:45.216Z,99437.40
2023-04-01T02:35:23.850Z,99444.80
2023-04-01T02:38:01.033Z,99451.00
2023-04-01T02:40:51.451Z,99447.80
2023-04-01T02:43:28.812Z,99440.80
2023-04-01T02:46:05.789Z,99442.00
2023-04-01T02:48:42.242Z,99441.60
2023-04-01T02:51:18.900Z,99437.40
2023-04-01T02:53:55.142Z,99438.60
2023-04-01T02:56:31.711Z,99438.20
2023-04-01T02:59:09.415Z,99434.40
2023-04-01T03:01:45.816Z,99439.40
2023-04-01T03:04:24.196Z,99442.60
2023-04-01T03:07:01.010Z,99455.20
2023-04-01T03:09:37.541Z,99458.20
2023-04-01T03:12:15.586Z,99460.20
2023-04-01T03:14:57.583Z,99452.60
2023-04-01T03:17:48.749Z,99446.80
2023-04-01T03:20:25.283Z,99449.60
2023-04-01T03:23:02.678Z,99453.40
2023-04-01T03:25:39.528Z,99452.60
2023-04-01T03:28:16.988Z,99452.40
2023-04-01T03:30:53.934Z,99451.40
2023-04-01T03:33:30.494Z,99453.20
2023-04-01T03:36:07.746Z,99453.00
2023-04-01T03:38:44.392Z,99451.20
2023-04-01T03:41:23.895Z,99453.80
2023-04-01T03:44:02.162Z,99457.80
2023-04-01T03:46:38.631Z,99463.00
2023-04-01T03:49:16.461Z,99459.40
2023-04-01T03:51:53.458Z,99457.80
2023-04-01T03:54:31.580Z,99465.00
2023-04-01T03:57:09.518Z,99463.60
2023-04-01T03:59:46.030Z,99467.80
2023-04-01T04:02:22.429Z,99473.60
2023-04-01T04:04:59.413Z,99471.80
2023-04-01T04:07:37.721Z,99468.40
2023-04-01T04:10:18.147Z,99469.60
2023-04-01T04:12:55.464Z,99470.60
2023-04-01T04:15:32.939Z,99474.60
2023-04-01T04:18:10.259Z,99485.00
2023-04-01T04:20:52.523Z,99483.00
2023-04-01T04:23:30.167Z,99485.60
2023-04-01T04:26:10.148Z,99489.00
2023-04-01T04:28:47.520Z,99490.40
2023-04-01T04:31:29.853Z,99491.80
2023-04-01T04:34:07.920Z,99496.40
2023-04-01T04:36:45.682Z,99498.00
2023-04-01T04:39:22.271Z,99499.00
2023-04-01T04:42:02.944Z,99507.80
2023-04-01T04:44:40.033Z,99507.80
2023-04-01T04:47:16.414Z,99502.80
2023-04-01T04:49:53.996Z,99507.00
2023-04-01T04:52:31.524Z,99504.80
2023-04-01T04:55:10.232Z,99500.40
2023-04-01T04:57:47.866Z,99505.60
2023-04-01T05:00:26.380Z,99510.20
2023-04-01T05:03:07.938Z,99510.80
2023-04-01T05:05:51.812Z,99513.20
2023-04-01T05:08:28.723Z,99511.00
2023-04-01T05:11:05.580Z,99518.40
2023-04-01T05:13:42.428Z,99520.40
2023-04-01T05:16:22.007Z,99518.00
2023-04-01T05:18:58.851Z,99521.20
2023-04-01T05:21:37.150Z,99523.60
2023-04-01T05:24:15.793Z,99526.00
2023-04-01T05:26:53.413Z,99529.40
2023-04-01T05:29:30.313Z,99533.20
2023-04-01T05:32:14.207Z,99516.40
2023-04-01T05:34:53.875Z,99518.40
2023-04-01T05:37:31.390Z,99514.40
2023-04-01T05:40:16.059Z,99510.40
2023-04-01T05:42:52.594Z,99511.00
2023-04-01T05:45:28.887Z,99511.00
2023-04-01T05:48:23.598Z,99505.40
2023-04-01T05:51:00.607Z,99504.60
2023-04-01T05:53:38.381Z,99509.60
2023-04-01T05:56:16.124Z,99513.20
2023-04-01T05:58:59.284Z,99515.80
2023-04-01T06:01:36.614Z,99517.40
2023-04-01T06:04:17.327Z,99522.40
2023-04-01T06:06:55.437Z,99527.80
2023-04-01T06:09:37.039Z,99531.60
2023-04-01T06:12:50.470Z,99535.80
2023-04-01T06:15:44.342Z,99535.00
2023-04-01T06:19:14.320Z,99534.40
2023-04-01T06:22:36.668Z,99536.40
2023-04-01T06:25:49.705Z,99547.40
2023-04-01T06:29:03.599Z,99545.20
2023-04-01T06:32:09.063Z,99539.60
2023-04-01T06:35:25.299Z,99540.80
2023-04-01T06:38:39.708Z,99544.20
2023-04-01T06:41:54.235Z,99540.80
2023-04-01T06:44:48.561Z,99538.60
2023-04-01T06:48:13.762Z,99545.60
2023-04-01T06:51:06.602Z,99551.40
2023-04-01T06:54:19.763Z,99563.60
2023-04-01T06:57:39.416Z,99563.60
2023-04-01T07:00:30.644Z,99564.00
2023-04-01T07:06:34.961Z,99570.20
2023-04-01T07:09:21.578Z,99567.20
2023-04-01T07:12:35.751Z,99568.60
2023-04-01T07:15:39.189Z,99566.60
2023-04-01T07:18:25.712Z,99568.20
2023-04-01T07:21:05.253Z,99571.20
2023-04-01T07:23:48.074Z,99574.40
2023-04-01T07:26:39.596Z,99574.00
2023-04-01T07:29:24.459Z,99575.40
2023-04-01T07:32:25.370Z,99580.00
2023-04-01T07:35:18.404Z,99578.80
2023-04-01T07:38:15.629Z,99577.60
2023-04-01T07:41:05.890Z,99575.00
2023-04-01T07:43:58.884Z,99577.80
2023-04-01T07:47:05.313Z,99582.00
2023-04-01T07:49:55.571Z,99578.80
2023-04-01T07:52:40.280Z,99586.60
2023-04-01T07:55:30.257Z,99587.40
2023-04-01T07:58:22.953Z,99587.80
2023-04-01T08:01:08.437Z,99587.80
2023-04-01T08:04:18.493Z,99583.20
2023-04-01T08:07:05.353Z,99588.20
2023-04-01T08:09:55.007Z,99588.20
2023-04-01T08:13:17.780Z,99582.60
2023-04-01T08:16:27.968Z,99585.60
2023-04-01T08:19:21.215Z,99582.60
2023-04-01T08:22:05.668Z,99581.00
2023-04-01T08:24:48.531Z,99586.20
2023-04-01T08:27:38.934Z,99588.40
2023-04-01T08:30:27.208Z,99586.80
2023-04-01T08:33:09.113Z,99590.60
2023-04-01T08:35:54.312Z,99588.80
2023-04-01T08:38:38.346Z,99584.80
2023-04-01T08:41:44.536Z,99583.60
2023-04-01T08:45:16.687Z,99579.20
2023-04-01T08:48:18.777Z,99583.00
2023-04-01T08:51:50.645Z,99583.20
2023-04-01T08:55:17.410Z,99585.40
2023-04-01T08:58:41.231Z,99591.80
2023-04-01T09:01:54.095Z,99593.40
2023-04-01T09:05:30.357Z,99590.60
2023-04-01T09:08:20.964Z,99584.20
2023-04-01T09:11:08.726Z,99588.80
2023-04-01T09:14:37.973Z,99592.00
2023-04-01T09:18:07.643Z,99594.60
2023-04-01T09:21:54.917Z,99602.20
2023-04-01T09:25:27.142Z,99601.20
2023-04-01T09:28:13.032Z,99599.60
2023-04-01T09:31:18.288Z,99600.20
2023-04-01T09:34:38.532Z,99597.20
2023-04-01T09:37:30.390Z,99593.40
2023-04-01T09:40:34.786Z,99592.80
2023-04-01T09:43:37.381Z,99587.80
2023-04-01T09:46:47.231Z,99591.00
2023-04-01T09:50:08.781Z,99588.00
2023-04-01T09:52:55.021Z,99586.00
2023-04-01T09:56:19.196Z,99589.60
2023-04-01T09:59:55.400Z,99587.80
2023-04-01T10:03:40.905Z,99588.80
2023-04-01T10:07:07.845Z,99583.60
2023-04-01T10:10:52.572Z,99581.40
2023-04-01T10:14:09.747Z,99577.40
2023-04-01T10:17:23.965Z,99578.80
2023-04-01T10:20:31.347Z,99575.00
2023-04-01T10:23:53.293Z,99571.80
2023-04-01T10:30:36.236Z,99558.00
2023-04-01T10:34:25.417Z,99562.40
2023-04-01T10:37:03.608Z,99559.40
2023-04-01T10:40:27.847Z,99555.80
2023-04-01T10:44:01.856Z,99556.80
2023-04-01T10:47:16.491Z,99548.80
2023-04-01T10:50:32.045Z,99545.40
2023-04-01T10:54:07.961Z,99548.20
2023-04-01T10:57:16.129Z,99552.40
2023-04-01T11:00:45.188Z,99549.60
2023-04-01T11:04:54.535Z,99548.00
2023-04-01T11:08:47.512Z,99543.80
2023-04-01T11:12:16.541Z,99541.60
2023-04-01T11:15:33.333Z,99532.00
2023-04-01T11:19:10.157Z,99529.20
2023-04-01T11:22:28.471Z,99532.00
2023-04-01T11:25:39.298Z,99527.20
2023-04-01T11:29:22.270Z,99530.00
2023-04-01T11:32:14.514Z,99529.40
2023-04-01T11:35:28.939Z,99528.80
2023-04-01T11:38:33.085Z,99529.20
2023-04-01T11:41:59.757Z,99525.00
2023-04-01T11:45:15.464Z,99519.60
2023-04-01T11:48:28.220Z,99519.20
2023-04-01T11:51:34.107Z,99521.60
2023-04-01T11:54:27.182Z,99517.60
2023-04-01T11:57:25.374Z,99514.40
2023-04-01T12:00:36.449Z,99519.40
2023-04-01T12:03:36.432Z,99518.20
2023-04-01T12:06:23.451Z,99517.60
2023-04-01T12:09:13.019Z,99522.60
2023-04-01T12:12:01.975Z,99516.80
2023-04-01T12:14:47.849Z,99514.00
2023-04-01T12:17:44.466Z,99516.20
2023-04-01T12:20:47.209Z,99515.60
2023-04-01T12:24:03.164Z,99511.80
2023-04-01T12:27:06.281Z,99517.00
2023-04-01T12:30:23.241Z,99516.60
2023-04-01T12:33:17.536Z,99509.60
2023-04-01T12:36:10.212Z,99506.20
2023-04-01T12:39:09.739Z,99504.80
2023-04-01T12:41:57.027Z,99501.80
2023-04-01T12:45:07.381Z,99502.00
2023-04-01T12:48:30.113Z,99494.60
2023-04-01T12:51:40.918Z,99500.60
2023-04-01T12:55:07.133Z,99498.60
2023-04-01T12:58:40.266Z,99504.40
2023-04-01T13:01:59.690Z,99498.80
2023-04-01T13:05:15.102Z,99492.40
2023-04-01T13:08:12.253Z,99491.20
2023-04-01T13:11:19.136Z,99481.80
2023-04-01T13:14:31.324Z,99482.60
2023-04-01T13:17:19.100Z,99480.20
2023-04-01T13:20:06.646Z,99471.20
2023-04-01T13:23:01.580Z,99472.00
2023-04-01T13:25:56.665Z,99469.00
2023-04-01T13:28:46.182Z,99471.40
2023-04-01T13:31:47.332Z,99462.80
2023-04-01T13:35:03.188Z,99461.20
2023-04-01T13:38:03.101Z,99464.20
2023-04-01T13:41:03.704Z,99457.80
2023-04-01T13:43:47.116Z,99449.40
2023-04-01T13:46:45.618Z,99439.40
2023-04-01T13:50:00.573Z,99434.40
2023-04-01T13:53:22.271Z,99432.00
2023-04-01T13:56:12.005Z,99427.80
2023-04-01T13:59:31.226Z,99421.00
2023-04-01T14:02:40.808Z,99418.80
2023-04-01T14:05:51.040Z,99420.00
2023-04-01T14:08:46.027Z,99421.40
2023-04-01T14:11:31.075Z,99419.60
2023-04-01T14:14:24.682Z,99421.40
2023-04-01T14:17:31.319Z,99420.80
2023-04-01T14:20:29.467Z,99418.20
2023-04-01T14:23:42.534Z,99413.60
2023-04-01T14:29:57.498Z,99411.00
2023-04-01T14:32:50.801Z,99410.20
2023-04-01T14:35:47.319Z,99409.40
2023-04-01T14:38:43.161Z,99407.40
2023-04-01T14:41:44.366Z,99401.60
2023-04-01T14:44:56.780Z,99401.00
2023-04-01T14:47:52.987Z,99397.00
2023-04-01T14:50:32.955Z,99389.80
2023-04-01T14:53:32.485Z,99387.00
2023-04-01T14:56:10.710Z,99381.60
2023-04-01T14:58:53.646Z,99385.20
2023-04-01T15:01:50.496Z,99387.60
2023-04-01T15:04:57.537Z,99385.60
2023-04-01T15:08:18.945Z,99385.20
2023-04-01T15:11:26.086Z,99382.20
2023-04-01T15:14:39.628Z,99378.00
2023-04-01T15:17:49.085Z,99373.40
2023-04-01T15:20:52.985Z,99373.40
2023-04-01T15:23:45.148Z,99369.00
2023-04-01T15:26:55.494Z,99368.00
2023-04-01T15:30:13.072Z,99370.60
2023-04-01T15:33:10.011Z,99368.40
2023-04-01T15:36:01.254Z,99371.40
2023-04-01T15:38:51.051Z,99364.20
2023-04-01T15:41:39.171Z,99365.20
2023-04-01T15:45:00.921Z,99365.00
2023-04-01T15:48:02.520Z,99369.00
2023-04-01T15:51:05.520Z,99368.60
2023-04-01T15:54:22.792Z,99369.80
2023-04-01T15:57:30.065Z,99369.80
2023-04-01T16:00:31.782Z,99368.60
2023-04-01T16:03:36.990Z,99369.40
2023-04-01T16:06:54.188Z,99374.00
2023-04-01T16:10:01.483Z,99374.40
2023-04-01T16:13:02.715Z,99374.40
2023-04-01T16:15:55.061Z,99372.60
2023-04-01T16:19:01.906Z,99374.40
2023-04-01T16:21:54.660Z,99365.00
2023-04-01T16:24:44.295Z,99364.60
2023-04-01T16:27:28.739Z,99355.60
2023-04-01T16:30:31.607Z,99356.00
2023-04-01T16:33:18.620Z,99357.80
2023-04-01T16:36:02.368Z,99361.80
2023-04-01T16:38:55.483Z,99360.80
2023-04-01T16:41:38.875Z,99356.20
2023-04-01T16:44:26.060Z,99348.40
2023-04-01T16:47:10.632Z,99347.80
2023-04-01T16:49:55.874Z,99351.80
2023-04-01T16:52:56.263Z,99356.00
2023-04-01T16:55:50.910Z,99359.40
2023-04-01T16:58:38.837Z,99358.40
2023-04-01T17:01:26.102Z,99357.40
2023-04-01T17:04:17.947Z,99358.80
2023-04-01T17:07:04.322Z,99360.00
2023-04-01T17:10:21.059Z,99361.20
2023-04-01T17:13:14.843Z,99358.40
2023-04-01T17:16:05.896Z,99359.20
2023-04-01T17:18:54.049Z,99362.00
2023-04-01T17:22:02.698Z,99364.20
2023-04-01T17:25:05.286Z,99365.00
2023-04-01T17:27:55.601Z,99373.00
2023-04-01T17:30:38.903Z,99370.00
2023-04-01T17:33:50.578Z,99371.60
2023-04-01T17:36:46.546Z,99376.20
2023-04-01T17:39:44.731Z,99379.60
2023-04-01T17:42:35.794Z,99381.00
2023-04-01T17:45:29.612Z,99382.00
2023-04-01T17:48:25.201Z,99383.80
2023-04-01T17:51:21.542Z,99388.60
2023-04-01T17:54:08.169Z,99391.00
2023-04-01T17:57:04.549Z,99399.40
2023-04-01T17:59:50.921Z,99403.80
2023-04-01T18:02:39.727Z,99404.60
2023-04-01T18:05:42.026Z,99411.80
2023-04-01T18:08:44.040Z,99415.40
2023-04-01T18:11:37.589Z,99416.60
2023-04-01T18:15:14.516Z,99423.00
2023-04-01T18:18:10.446Z,99427.20
2023-04-01T18:21:04.379Z,99423.00
2023-04-01T18:24:01.850Z,99428.20
2023-04-01T18:26:41.654Z,99429.00
2023-04-01T18:29:35.733Z,99439.80
2023-04-01T18:32:36.391Z,99441.40
2023-04-01T18:35:28.703Z,99442.40
2023-04-01T18:38:17.419Z,99451.20
2023-04-01T18:41:04.408Z,99455.80
2023-04-01T18:43:57.412Z,99460.80
2023-04-01T18:46:44.752Z,99459.60
2023-04-01T18:49:29.825Z,99464.80
2023-04-01T18:52:17.647Z,99465.40
2023-04-01T18:55:26.703Z,99467.60
2023-04-01T18:58:21.986Z,99471.60
2023-04-01T19:01:15.389Z,99473.80
2023-04-01T19:04:11.461Z,99477.60
2023-04-01T19:06:58.012Z,99480.20
2023-04-01T19:09:47.068Z,99483.40
2023-04-01T19:12:50.906Z,99484.00
2023-04-01T19:15:43.258Z,99487.80
2023-04-01T19:19:09.499Z,99490.80
2023-04-01T19:21:51.081Z,99494.20
2023-04-01T19:25:11.067Z,99495.40
2023-04-01T19:27:53.948Z,99501.00
2023-04-01T19:31:00.601Z,99503.80
2023-04-01T19:34:05.649Z,99505.60
2023-04-01T19:36:52.658Z,99509.20
2023-04-01T19:39:51.259Z,99515.00
2023-04-01T19:42:41.490Z,99515.20
2023-04-01T19:45:41.096Z,99519.20
2023-04-01T19:48:45.144Z,99522.80
2023-04-01T19:51:34.666Z,99523.00
2023-04-01T19:54:30.189Z,99529.20
2023-04-01T19:57:24.092Z,99527.60
2023-04-01T20:00:09.293Z,99536.80
2023-04-01T20:03:09.811Z,99539.60
2023-04-01T20:06:11.572Z,99540.20
2023-04-01T20:09:02.590Z,99544.40
2023-04-01T20:11:57.756Z,99541.00
2023-04-01T20:14:48.567Z,99547.20
2023-04-01T20:17:31.679Z,99544.20
2023-04-01T20:20:23.041Z,99553.00
2023-04-01T20:23:31.796Z,99551.80
2023-04-01T20:26:15.439Z,99552.80
2023-04-01T20:29:22.178Z,99557.80
2023-04-01T20:32:14.445Z,99554.80
2023-04-01T20:35:14.764Z,99554.00
2023-04-01T20:38:00.183Z,99552.60
2023-04-01T20:40:44.265Z,99551.60
2023-04-01T20:44:05.534Z,99550.60
2023-04-01T20:46:52.814Z,99556.00
2023-04-01T20:49:44.962Z,99560.80
2023-04-01T20:52:40.052Z,99563.00
2023-04-01T20:55:56.639Z,99564.80
2023-04-01T20:58:46.096Z,99567.20
2023-04-01T21:01:37.993Z,99570.40
2023-04-01T21:04:40.856Z,99576.00
2023-04-01T21:07:43.634Z,99580.20
2023-04-01T21:10:44.022Z,99586.80
2023-04-01T21:13:47.435Z,99588.80
2023-04-01T21:16:50.848Z,99591.40
2023-04-01T21:19:47.621Z,99598.20
2023-04-01T21:22:53.665Z,99596.00
2023-04-01T21:26:05.682Z,99604.40
2023-04-01T21:29:04.028Z,99602.60
2023-04-01T21:32:04.584Z,99602.00
2023-04-01T21:35:04.692Z,99605.40
2023-04-01T21:38:01.480Z,99602.00
2023-04-01T21:40:57.543Z,99603.20
2023-04-01T21:44:17.663Z,99598.00
2023-04-01T21:47:27.076Z,99605.00
2023-04-01T21:50:45.540Z,99598.80
2023-04-01T21:54:26.025Z,99599.20
2023-04-01T21:58:00.951Z,99595.40
2023-04-01T22:00:46.574Z,99601.40
2023-04-01T22:04:33.940Z,99606.00
2023-04-01T22:07:20.357Z,99598.20
2023-04-01T22:10:15.545Z,99594.00
2023-04-01T22:13:00.746Z,99599.00
2023-04-01T22:16:04.062Z,99597.60
2023-04-01T22:18:49.476Z,99596.60
2023-04-01T22:21:39.566Z,99593.80
2023-04-01T22:24:27.961Z,99601.40
2023-04-01T22:27:15.721Z,99598.00
2023-04-01T22:30:05.493Z,99598.80
2023-04-01T22:32:49.599Z,99591.00
2023-04-01T22:35:43.444Z,99592.40
2023-04-01T22:38:38.580Z,99587.60
2023-04-01T22:41:32.236Z,99591.00
2023-04-01T22:44:17.319Z,99584.60
2023-04-01T22:47:16.452Z,99587.20
2023-04-01T22:50:03.451Z,99585.00
2023-04-01T22:52:46.038Z,99588.00
2023-04-01T22:55:28.833Z,99593.60
2023-04-01T22:58:10.944Z,99590.00
2023-04-01T23:00:51.662Z,99586.80
2023-04-01T23:03:33.591Z,99594.20
2023-04-01T23:06:15.481Z,99585.80
2023-04-01T23:09:16.333Z,99585.60
2023-04-01T23:11:58.968Z,99585.20
2023-04-01T23:14:51.253Z,99582.80
2023-04-01T23:18:03.694Z,99581.20
2023-04-01T23:21:00.536Z,99586.20
2023-04-01T23:23:51.964Z,99583.20
2023-04-01T23:26:36.005Z,99582.60
2023-04-01T23:29:18.198Z,99583.60
2023-04-01T23:32:03.037Z,99580.80
2023-04-01T23:34:41.353Z,99582.00
2023-04-01T23:37:20.574Z,99588.00
2023-04-01T23:39:59.730Z,99587.60
2023-04-01T23:42:43.105Z,99592.80
2023-04-01T23:45:25.754Z,99595.40
2023-04-01T23:48:02.597Z,99593.80
2023-04-01T23:50:39.448Z,99590.80
2023-04-01T23:53:24.917Z,99595.20
2023-04-01T23:56:05.428Z,99596.00
2023-04-01T23:58:53.475Z,99597.00
